Dr.kaiyo — JD2325 — position and weather

sailwx.info

Track history (hours):
 
Tides and Currents Weather Stations Pressure Air Temp Water Temp Dewpoint Dewpoint Depression Visibility Wind Speed Wind Dir Waves Ship Positions

Dr.kaiyo

Last reported at 2015-Jan-29 06:10 UTC. Time now 2015-Jan-30 00:30 UTC.
Position N 34°41' E 135°12'.

Length 31 m.

Type: Other ship. MMSI: 431301823.

Date/timePositionNaut miles runAvg speedWind from/ knotsBaromVisibWave heightAir tempDewpointWater temp
2015-Jan-29 06:10N 34°41' E 135°12'1 1.1
2015-Jan-29 05:33N 34°41' E 135°13'0 0.5
2015-Jan-29 04:33N 34°42' E 135°13'0 0.3
2015-Jan-29 03:31N 34°41' E 135°12'6 5.9
2015-Jan-29 02:33N 34°36' E 135°10'2 2.1
2015-Jan-29 01:33N 34°34' E 135°11'8 7.6
2015-Jan-29 00:33N 34°42' E 135°13'1 0.0
2015-Jan-28 05:04N 34°41' E 135°12'3 5.6
2015-Jan-28 04:33N 34°40' E 135°15'3 2.9
2015-Jan-28 03:30N 34°39' E 135°12'4 3.9
2015-Jan-28 02:33N 34°36' E 135°09'9 8.7
2015-Jan-28 01:33N 34°31' E 135°17'10 9.8
2015-Jan-28 00:33N 34°41' E 135°14'1 0.1
2015-Jan-27 04:33N 34°40' E 135°15'4 4.0
2015-Jan-27 03:30N 34°40' E 135°20'2 2.6
2015-Jan-27 02:33N 34°38' E 135°19'1312.5
2015-Jan-27 01:33N 34°31' E 135°07'9 8.8
2015-Jan-27 00:33N 34°39' E 135°11'1 0.1
2015-Jan-26 05:32N 34°40' E 135°12'8 7.8
2015-Jan-26 04:32N 34°32' E 135°14'5 4.4
2015-Jan-26 03:21N 34°29' E 135°19'5 6.3
2015-Jan-26 02:33N 34°29' E 135°13'1010.2
2015-Jan-26 01:33N 34°32' E 135°01'1212.0
2015-Jan-26 00:33N 34°40' E 135°12'  
2015-Jan-23 05:10N 34°41' E 135°12'3 4.3
2015-Jan-23 04:33N 34°39' E 135°12'7 6.4
2015-Jan-23 03:32N 34°40' E 135°20'1 0.9
2015-Jan-23 02:33N 34°41' E 135°20'1 1.4
2015-Jan-23 01:33N 34°40' E 135°21'4 3.5
2015-Jan-23 00:33N 34°41' E 135°17'4 0.2
2015-Jan-22 05:29N 34°41' E 135°12'5 5.7
2015-Jan-22 04:34N 34°37' E 135°15'5 4.2
2015-Jan-22 03:17N 34°40' E 135°20'2 2.6
2015-Jan-22 02:33N 34°38' E 135°19'8 8.2
2015-Jan-22 01:33N 34°30' E 135°19'1111.1
2015-Jan-22 00:33N 34°40' E 135°15'2 0.1
2015-Jan-21 04:33N 34°42' E 135°13'3 2.7
2015-Jan-21 03:29N 34°39' E 135°12'1 1.1
2015-Jan-21 02:33N 34°38' E 135°11'1010.5
2015-Jan-21 01:33N 34°30' E 135°03'9 8.9
2015-Jan-21 00:32N 34°33' E 135°13'8 8.0
2015-Jan-20 23:30N 34°41' E 135°12'0 0.0
2015-Jan-20 05:31N 34°41' E 135°12'6 5.9
2015-Jan-20 04:32N 34°36' E 135°15'5 3.9
2015-Jan-20 03:17N 34°35' E 135°21'3 4.1
2015-Jan-20 02:32N 34°33' E 135°18'8 7.8
2015-Jan-20 01:28N 34°36' E 135°09'6 7.2
2015-Jan-20 00:33N 34°41' E 135°13'1 0.6
2015-Jan-19 23:24N 34°41' E 135°12'  
Track history (hours):
 
Tides and Currents Weather Stations Pressure Air Temp Water Temp Dewpoint Dewpoint Depression Visibility Wind Speed Wind Dir Waves Ship Positions

Dr.kaiyo

Last reported at 2015-Jan-29 06:10 UTC. Time now 2015-Jan-30 00:30 UTC.
Position N 34°41' E 135°12'.

Length 31 m.

Type: Other ship. MMSI: 431301823.

Date/timePositionNaut miles runAvg speedWind from/ knotsBaromVisibWave heightAir tempDewpointWater temp
2015-Jan-29 06:10N 34°41' E 135°12'1 1.1
2015-Jan-29 05:33N 34°41' E 135°13'0 0.5
2015-Jan-29 04:33N 34°42' E 135°13'0 0.3
2015-Jan-29 03:31N 34°41' E 135°12'6 5.9
2015-Jan-29 02:33N 34°36' E 135°10'2 2.1
2015-Jan-29 01:33N 34°34' E 135°11'8 7.6
2015-Jan-29 00:33N 34°42' E 135°13'1 0.0
2015-Jan-28 05:04N 34°41' E 135°12'3 5.6
2015-Jan-28 04:33N 34°40' E 135°15'3 2.9
2015-Jan-28 03:30N 34°39' E 135°12'4 3.9
2015-Jan-28 02:33N 34°36' E 135°09'9 8.7
2015-Jan-28 01:33N 34°31' E 135°17'10 9.8
2015-Jan-28 00:33N 34°41' E 135°14'1 0.1
2015-Jan-27 04:33N 34°40' E 135°15'4 4.0
2015-Jan-27 03:30N 34°40' E 135°20'2 2.6
2015-Jan-27 02:33N 34°38' E 135°19'1312.5
2015-Jan-27 01:33N 34°31' E 135°07'9 8.8
2015-Jan-27 00:33N 34°39' E 135°11'1 0.1
2015-Jan-26 05:32N 34°40' E 135°12'8 7.8
2015-Jan-26 04:32N 34°32' E 135°14'5 4.4
2015-Jan-26 03:21N 34°29' E 135°19'5 6.3
2015-Jan-26 02:33N 34°29' E 135°13'1010.2
2015-Jan-26 01:33N 34°32' E 135°01'1212.0
2015-Jan-26 00:33N 34°40' E 135°12'  
2015-Jan-23 05:10N 34°41' E 135°12'3 4.3
2015-Jan-23 04:33N 34°39' E 135°12'7 6.4
2015-Jan-23 03:32N 34°40' E 135°20'1 0.9
2015-Jan-23 02:33N 34°41' E 135°20'1 1.4
2015-Jan-23 01:33N 34°40' E 135°21'4 3.5
2015-Jan-23 00:33N 34°41' E 135°17'4 0.2
2015-Jan-22 05:29N 34°41' E 135°12'5 5.7
2015-Jan-22 04:34N 34°37' E 135°15'5 4.2
2015-Jan-22 03:17N 34°40' E 135°20'2 2.6
2015-Jan-22 02:33N 34°38' E 135°19'8 8.2
2015-Jan-22 01:33N 34°30' E 135°19'1111.1
2015-Jan-22 00:33N 34°40' E 135°15'2 0.1
2015-Jan-21 04:33N 34°42' E 135°13'3 2.7
2015-Jan-21 03:29N 34°39' E 135°12'1 1.1
2015-Jan-21 02:33N 34°38' E 135°11'1010.5
2015-Jan-21 01:33N 34°30' E 135°03'9 8.9
2015-Jan-21 00:32N 34°33' E 135°13'8 8.0
2015-Jan-20 23:30N 34°41' E 135°12'0 0.0
2015-Jan-20 05:31N 34°41' E 135°12'6 5.9
2015-Jan-20 04:32N 34°36' E 135°15'5 3.9
2015-Jan-20 03:17N 34°35' E 135°21'3 4.1
2015-Jan-20 02:32N 34°33' E 135°18'8 7.8
2015-Jan-20 01:28N 34°36' E 135°09'6 7.2
2015-Jan-20 00:33N 34°41' E 135°13'1 0.6
2015-Jan-19 23:24N 34°41' E 135°12'  

Dump ship's entire track history